Time;durP1;ratioP1;P1;durP2;ratioP2;P2;SDS_P1;SDS_P2;PMS_P1;PMS_P2;Temp;Humidity;BMP_temperature;BMP_pressure;BME280_temperature;BME280_humidity;BME280_pressure;Samples;Min_cycle;Max_cycle;Signal;HPM_P1;HPM_P2
2023/12/31 00:01:12;;;;;;;0.40;0.40;;;11.50;68.40;;;;;;5074422;28;20035;-68
2023/12/31 00:03:38;;;;;;;0.50;0.50;;;11.40;68.30;;;;;;5074505;28;20024;-68
2023/12/31 00:06:04;;;;;;;0.50;0.50;;;11.50;68.70;;;;;;5073955;28;20112;-69
2023/12/31 00:08:29;;;;;;;0.50;0.50;;;11.50;69.10;;;;;;5074578;28;20025;-68
2023/12/31 00:10:55;;;;;;;0.50;0.50;;;11.50;69.30;;;;;;5074338;28;20107;-68
2023/12/31 00:13:20;;;;;;;0.50;0.50;;;11.50;69.80;;;;;;5074665;28;20078;-68
2023/12/31 00:15:46;;;;;;;0.55;0.55;;;11.60;70.00;;;;;;5074715;28;20028;-68
2023/12/31 00:18:11;;;;;;;0.40;0.40;;;11.70;70.20;;;;;;5074818;28;20037;-68
2023/12/31 00:20:37;;;;;;;0.60;0.60;;;11.80;70.30;;;;;;5074185;28;20028;-66
2023/12/31 00:23:02;;;;;;;0.60;0.60;;;11.90;70.60;;;;;;5074782;28;20036;-67
2023/12/31 00:25:28;;;;;;;0.40;0.40;;;12.00;70.50;;;;;;5074072;28;20048;-67
2023/12/31 00:27:53;;;;;;;0.60;0.60;;;12.00;70.90;;;;;;5074356;28;20033;-67
2023/12/31 00:30:19;;;;;;;0.50;0.50;;;12.10;71.00;;;;;;5074114;28;20024;-69
2023/12/31 00:32:44;;;;;;;0.50;0.50;;;12.20;70.70;;;;;;5074568;28;20487;-68
2023/12/31 00:35:10;;;;;;;0.40;0.40;;;12.30;70.60;;;;;;5074141;28;20032;-69
2023/12/31 00:37:35;;;;;;;0.50;0.50;;;12.30;70.70;;;;;;5056593;28;20483;-69
2023/12/31 00:40:01;;;;;;;0.50;0.50;;;12.40;70.70;;;;;;5073945;28;20460;-68
2023/12/31 00:42:26;;;;;;;0.60;0.60;;;12.50;70.60;;;;;;5073801;28;20039;-68
2023/12/31 00:44:52;;;;;;;0.40;0.40;;;12.50;70.60;;;;;;5073798;28;20032;-69
2023/12/31 00:47:17;;;;;;;0.60;0.60;;;12.50;70.60;;;;;;5074101;28;20036;-68
2023/12/31 00:49:43;;;;;;;0.40;0.40;;;12.60;70.60;;;;;;5074013;28;20107;-68
2023/12/31 00:52:08;;;;;;;0.50;0.50;;;12.60;70.30;;;;;;5073454;28;20124;-68
2023/12/31 00:54:34;;;;;;;0.60;0.60;;;12.70;70.50;;;;;;5073653;28;20020;-68
2023/12/31 00:56:59;;;;;;;0.50;0.50;;;12.60;70.40;;;;;;5073781;28;20082;-68
2023/12/31 00:59:25;;;;;;;0.40;0.40;;;12.70;70.30;;;;;;5073534;28;20048;-68
2023/12/31 01:01:51;;;;;;;0.50;0.50;;;12.60;70.00;;;;;;5073775;28;20037;-69
2023/12/31 01:04:16;;;;;;;0.50;0.50;;;12.60;69.90;;;;;;5073584;28;20040;-68
2023/12/31 01:06:42;;;;;;;0.50;0.50;;;12.60;69.80;;;;;;5073822;28;20438;-68
2023/12/31 01:09:09;;;;;;;0.50;0.50;;;12.60;69.90;;;;;;5055416;28;20028;-68
2023/12/31 01:11:35;;;;;;;0.50;0.50;;;12.60;69.70;;;;;;5073434;28;20032;-68
2023/12/31 01:14:00;;;;;;;0.40;0.40;;;12.50;69.50;;;;;;5073341;28;20021;-67
2023/12/31 01:16:26;;;;;;;0.40;0.40;;;12.50;69.40;;;;;;5073058;28;20045;-68
2023/12/31 01:18:51;;;;;;;0.50;0.50;;;12.50;69.40;;;;;;5073370;28;20020;-68
2023/12/31 01:21:18;;;;;;;0.82;0.82;;;12.40;69.30;;;;;;5073198;28;20394;-69
2023/12/31 01:23:43;;;;;;;0.43;0.43;;;12.30;69.20;;;;;;5073209;28;20021;-69
2023/12/31 01:26:09;;;;;;;0.40;0.40;;;12.40;69.10;;;;;;5073021;28;20028;-69
2023/12/31 01:28:34;;;;;;;0.40;0.40;;;12.30;69.00;;;;;;5073131;28;20024;-69
2023/12/31 01:31:00;;;;;;;0.40;0.40;;;12.30;69.30;;;;;;5073027;28;20021;-69
2023/12/31 01:33:25;;;;;;;0.47;0.47;;;12.30;69.20;;;;;;5073427;28;20120;-69
2023/12/31 01:35:51;;;;;;;0.50;0.50;;;12.30;69.40;;;;;;5073138;28;20027;-69
2023/12/31 01:38:16;;;;;;;0.50;0.50;;;12.20;69.10;;;;;;5073281;28;20373;-70
2023/12/31 01:40:52;;;;;;;0.60;0.60;;;12.20;68.70;;;;;;5073072;28;20492;-68
2023/12/31 01:43:19;;;;;;;0.50;0.50;;;12.10;68.30;;;;;;5072689;28;20484;-68
2023/12/31 01:45:44;;;;;;;0.40;0.40;;;11.90;68.00;;;;;;5072829;28;20077;-69
2023/12/31 01:48:10;;;;;;;0.40;0.40;;;11.90;68.00;;;;;;5073065;28;20036;-69
2023/12/31 01:50:36;;;;;;;0.50;0.50;;;11.80;68.20;;;;;;5072677;28;20496;-69
2023/12/31 01:53:03;;;;;;;0.50;0.50;;;11.70;68.50;;;;;;5073182;28;20083;-68
2023/12/31 01:55:28;;;;;;;0.50;0.50;;;11.70;68.50;;;;;;5072530;28;20028;-69
2023/12/31 01:57:54;;;;;;;0.57;0.57;;;11.70;68.60;;;;;;5072619;28;20051;-69
2023/12/31 02:00:20;;;;;;;0.50;0.50;;;11.70;69.00;;;;;;5072390;28;20523;-69
2023/12/31 02:02:48;;;;;;;0.73;0.73;;;11.70;69.10;;;;;;5072630;28;20058;-69
2023/12/31 02:05:14;;;;;;;0.60;0.60;;;11.70;69.10;;;;;;5072463;28;20025;-69
2023/12/31 02:07:40;;;;;;;0.38;0.38;;;11.70;69.00;;;;;;5072196;28;20051;-70
2023/12/31 02:10:06;;;;;;;0.52;0.52;;;11.70;68.90;;;;;;5072208;28;20448;-69
2023/12/31 02:12:31;;;;;;;0.40;0.40;;;11.60;68.70;;;;;;5072201;28;20033;-69
2023/12/31 02:14:57;;;;;;;0.50;0.50;;;11.50;68.50;;;;;;5072561;28;20090;-69
2023/12/31 02:17:22;;;;;;;0.55;0.55;;;11.50;68.30;;;;;;5072433;28;20104;-69
2023/12/31 02:19:48;;;;;;;23.40;2.28;;;11.40;68.20;;;;;;5072032;28;20028;-69
2023/12/31 02:22:14;;;;;;;0.50;0.50;;;11.30;68.20;;;;;;5071930;28;20041;-69
2023/12/31 02:24:47;;;;;;;0.50;0.50;;;11.30;68.10;;;;;;5072114;28;20111;-69
2023/12/31 02:27:13;;;;;;;1.50;1.38;;;11.20;68.10;;;;;;5072032;28;20438;-68
2023/12/31 02:29:38;;;;;;;0.88;0.75;;;11.20;68.00;;;;;;5071781;28;20024;-68
2023/12/31 02:32:04;;;;;;;0.50;0.50;;;11.10;67.80;;;;;;5072235;28;20037;-69
2023/12/31 02:34:30;;;;;;;0.55;0.55;;;11.10;67.70;;;;;;5072020;28;20380;-69
2023/12/31 02:36:55;;;;;;;0.40;0.40;;;11.00;67.60;;;;;;5072229;28;20028;-69
2023/12/31 02:39:22;;;;;;;0.60;0.60;;;10.90;67.70;;;;;;5071653;28;20036;-69
2023/12/31 02:41:47;;;;;;;0.50;0.50;;;10.90;67.70;;;;;;5071922;28;20120;-68
2023/12/31 02:44:13;;;;;;;0.60;0.60;;;10.80;67.80;;;;;;5071716;28;20119;-68
2023/12/31 02:46:38;;;;;;;0.50;0.50;;;10.80;67.70;;;;;;5071559;28;20044;-69
2023/12/31 02:49:06;;;;;;;0.60;0.60;;;10.70;67.70;;;;;;5071604;28;20024;-69
2023/12/31 02:51:32;;;;;;;0.60;0.60;;;10.70;67.60;;;;;;5053880;28;20391;-69
2023/12/31 02:53:58;;;;;;;0.50;0.50;;;10.60;67.50;;;;;;5071665;28;20422;-69
2023/12/31 02:56:23;;;;;;;0.40;0.40;;;10.50;67.20;;;;;;5071455;28;20032;-69
2023/12/31 02:58:49;;;;;;;0.50;0.50;;;10.40;67.00;;;;;;5071531;28;20033;-69
2023/12/31 03:01:14;;;;;;;1.25;1.15;;;10.40;67.10;;;;;;5071808;28;20029;-69
2023/12/31 03:03:40;;;;;;;0.40;0.40;;;10.30;67.10;;;;;;5071493;28;20039;-69
2023/12/31 03:06:05;;;;;;;0.50;0.50;;;10.30;67.60;;;;;;5071668;28;20120;-69
2023/12/31 03:08:31;;;;;;;0.50;0.50;;;10.30;67.90;;;;;;5071331;28;20033;-69
2023/12/31 03:10:57;;;;;;;0.40;0.40;;;10.30;68.10;;;;;;5071543;28;20020;-69
2023/12/31 03:13:22;;;;;;;0.50;0.50;;;10.30;68.30;;;;;;5071828;28;20468;-68
2023/12/31 03:15:48;;;;;;;0.60;0.60;;;10.30;68.60;;;;;;5076910;28;20024;-68
2023/12/31 03:18:13;;;;;;;0.50;0.50;;;10.30;68.70;;;;;;5077972;28;20063;-68
2023/12/31 03:20:39;;;;;;;0.40;0.40;;;10.40;68.70;;;;;;5078117;28;20598;-69
2023/12/31 03:23:04;;;;;;;0.40;0.40;;;10.40;68.50;;;;;;5078603;28;20032;-68
2023/12/31 03:25:30;;;;;;;0.40;0.40;;;10.40;69.00;;;;;;5077938;28;20044;-69
2023/12/31 03:27:55;;;;;;;0.40;0.40;;;10.50;69.60;;;;;;5077706;28;20113;-68
2023/12/31 03:30:21;;;;;;;0.50;0.50;;;10.60;70.20;;;;;;5077846;28;20126;-69
2023/12/31 03:32:46;;;;;;;0.40;0.40;;;10.70;70.30;;;;;;5078247;28;20029;-68
2023/12/31 03:35:12;;;;;;;0.50;0.50;;;10.80;70.50;;;;;;5078098;28;20392;-68
2023/12/31 03:37:37;;;;;;;0.50;0.50;;;10.90;70.50;;;;;;5077989;28;20056;-69
2023/12/31 03:40:03;;;;;;;0.50;0.50;;;11.00;70.20;;;;;;5077792;28;20480;-68
2023/12/31 03:42:30;;;;;;;0.60;0.60;;;11.00;70.00;;;;;;5078068;28;20035;-69
2023/12/31 03:44:55;;;;;;;0.50;0.50;;;11.10;70.10;;;;;;5077707;28;20043;-69
2023/12/31 03:47:20;;;;;;;0.40;0.40;;;11.20;69.90;;;;;;5077947;28;20399;-69
2023/12/31 03:49:46;;;;;;;0.60;0.60;;;11.20;69.90;;;;;;5077633;28;20044;-69
2023/12/31 03:52:12;;;;;;;0.50;0.50;;;11.20;69.90;;;;;;5078174;28;20158;-69
2023/12/31 03:54:41;;;;;;;0.40;0.40;;;11.30;70.10;;;;;;5077891;28;20360;-69
2023/12/31 03:57:06;;;;;;;0.40;0.40;;;11.30;70.10;;;;;;5077697;28;20064;-69
2023/12/31 03:59:32;;;;;;;0.40;0.40;;;11.40;70.00;;;;;;5077797;28;20075;-68
2023/12/31 04:01:58;;;;;;;0.50;0.50;;;11.40;70.20;;;;;;5077662;28;20074;-68
2023/12/31 04:04:25;;;;;;;0.47;0.47;;;11.50;70.20;;;;;;5077623;28;20357;-69
2023/12/31 04:06:51;;;;;;;0.50;0.50;;;11.50;70.20;;;;;;5077665;28;20036;-68
2023/12/31 04:09:16;;;;;;;0.70;0.70;;;11.60;69.90;;;;;;5077856;28;20391;-68
2023/12/31 04:11:42;;;;;;;2.45;1.63;;;11.60;69.80;;;;;;5059657;28;20037;-68
2023/12/31 04:14:07;;;;;;;0.70;0.70;;;11.70;69.90;;;;;;5077625;28;20017;-68
2023/12/31 04:16:33;;;;;;;0.40;0.40;;;11.70;69.80;;;;;;5077557;28;20460;-69
2023/12/31 04:18:58;;;;;;;0.50;0.50;;;11.70;69.80;;;;;;5059731;28;20043;-68
2023/12/31 04:21:24;;;;;;;0.45;0.45;;;11.70;69.90;;;;;;5077550;28;20082;-68
2023/12/31 04:23:50;;;;;;;0.47;0.47;;;11.80;69.40;;;;;;5077625;28;20384;-69
2023/12/31 04:26:16;;;;;;;0.40;0.40;;;11.80;69.60;;;;;;5056752;28;20055;-68
2023/12/31 04:28:41;;;;;;;0.50;0.50;;;11.80;69.70;;;;;;5074375;28;20056;-68
2023/12/31 04:31:08;;;;;;;0.50;0.50;;;11.80;69.60;;;;;;5073971;28;20083;-68
2023/12/31 04:33:34;;;;;;;0.73;0.73;;;11.80;69.50;;;;;;5074240;28;20020;-68
2023/12/31 04:36:03;;;;;;;0.38;0.38;;;11.80;69.50;;;;;;5073981;28;20038;-68
2023/12/31 04:38:28;;;;;;;0.90;0.90;;;11.80;69.50;;;;;;5074474;28;20028;-69
2023/12/31 04:40:54;;;;;;;0.75;0.75;;;11.80;69.30;;;;;;5074162;28;20033;-68
2023/12/31 04:43:19;;;;;;;0.50;0.50;;;11.80;69.40;;;;;;5074349;28;20388;-68
2023/12/31 04:45:45;;;;;;;0.40;0.40;;;11.80;69.30;;;;;;5073833;28;20073;-68
2023/12/31 04:48:10;;;;;;;0.50;0.50;;;11.80;69.50;;;;;;5074354;28;20040;-69
2023/12/31 04:50:36;;;;;;;0.85;0.85;;;11.90;69.50;;;;;;5073784;28;20028;-68
2023/12/31 04:53:01;;;;;;;0.55;0.55;;;11.80;69.40;;;;;;5074161;28;20025;-69
2023/12/31 04:55:27;;;;;;;0.50;0.50;;;11.90;69.50;;;;;;5073835;28;20028;-70
2023/12/31 04:57:52;;;;;;;0.75;0.75;;;11.90;69.40;;;;;;5074184;28;20037;-69
2023/12/31 05:00:18;;;;;;;0.60;0.60;;;11.90;69.30;;;;;;5073681;28;20095;-69
2023/12/31 05:02:43;;;;;;;1.25;1.15;;;11.90;69.30;;;;;;5073879;28;20056;-69
2023/12/31 05:05:09;;;;;;;0.40;0.40;;;11.90;69.40;;;;;;5073874;28;20095;-68
2023/12/31 05:07:34;;;;;;;0.70;0.70;;;12.00;69.20;;;;;;5073767;28;20079;-68
2023/12/31 05:10:01;;;;;;;0.50;0.50;;;12.00;69.30;;;;;;5073624;28;20078;-68
2023/12/31 05:12:27;;;;;;;0.40;0.40;;;12.00;69.20;;;;;;5073529;28;20365;-68
2023/12/31 05:14:53;;;;;;;0.40;0.40;;;12.00;68.90;;;;;;5073466;28;20020;-68
2023/12/31 05:17:18;;;;;;;0.57;0.57;;;12.10;69.10;;;;;;5073311;28;20115;-68
2023/12/31 05:19:45;;;;;;;0.50;0.50;;;12.10;69.00;;;;;;5073243;28;20060;-68
2023/12/31 05:22:10;;;;;;;0.40;0.40;;;12.10;69.00;;;;;;5073272;28;20036;-68
2023/12/31 05:24:36;;;;;;;0.50;0.50;;;12.10;68.80;;;;;;5073166;28;20040;-69
2023/12/31 05:27:01;;;;;;;0.60;0.60;;;12.10;69.10;;;;;;5072987;28;20032;-68
2023/12/31 05:29:27;;;;;;;0.50;0.50;;;12.20;69.20;;;;;;5072849;28;20032;-68
2023/12/31 05:31:53;;;;;;;3.05;1.50;;;12.20;69.20;;;;;;5073030;28;20033;-67
2023/12/31 05:34:18;;;;;;;0.40;0.40;;;12.30;69.30;;;;;;5072675;28;20104;-68
2023/12/31 05:36:44;;;;;;;0.60;0.60;;;12.30;69.40;;;;;;5072811;28;20081;-68
2023/12/31 05:39:09;;;;;;;0.60;0.60;;;12.30;69.30;;;;;;5072388;28;20452;-69
2023/12/31 05:41:36;;;;;;;0.70;0.70;;;12.30;69.30;;;;;;5072924;28;20048;-68
2023/12/31 05:44:02;;;;;;;9.15;1.95;;;12.30;69.00;;;;;;5072700;28;20099;-68
2023/12/31 05:46:28;;;;;;;2.05;1.05;;;12.30;68.70;;;;;;5072558;28;20111;-68
2023/12/31 05:48:53;;;;;;;0.45;0.45;;;12.30;68.50;;;;;;5072512;28;20493;-68
2023/12/31 05:51:19;;;;;;;0.47;0.47;;;12.30;68.60;;;;;;5072405;28;20107;-68
2023/12/31 05:53:44;;;;;;;0.45;0.45;;;12.30;68.60;;;;;;5072613;28;20383;-68
2023/12/31 05:56:10;;;;;;;0.40;0.40;;;12.30;68.70;;;;;;5072341;28;20033;-68
2023/12/31 05:58:35;;;;;;;3.38;0.88;;;12.30;68.40;;;;;;5054737;28;20025;-68
2023/12/31 06:01:02;;;;;;;0.45;0.45;;;12.30;68.60;;;;;;5072334;28;20043;-68
2023/12/31 06:03:28;;;;;;;0.47;0.47;;;12.30;68.70;;;;;;5072700;28;20031;-68
2023/12/31 06:05:53;;;;;;;0.40;0.40;;;12.30;68.80;;;;;;5054214;28;20032;-68
2023/12/31 06:08:19;;;;;;;0.82;0.82;;;12.30;68.80;;;;;;5072502;28;20035;-68
2023/12/31 06:10:44;;;;;;;0.40;0.40;;;12.30;68.80;;;;;;5072314;28;20365;-68
2023/12/31 06:13:10;;;;;;;0.70;0.70;;;12.40;68.90;;;;;;5072677;28;20041;-68
2023/12/31 06:15:35;;;;;;;0.43;0.43;;;12.40;68.60;;;;;;5072049;28;20361;-68
2023/12/31 06:18:01;;;;;;;0.75;0.75;;;12.40;68.70;;;;;;5072369;28;20383;-68
2023/12/31 06:20:26;;;;;;;0.50;0.50;;;12.50;68.40;;;;;;5072038;28;20024;-68
2023/12/31 06:22:52;;;;;;;0.95;0.95;;;12.50;68.60;;;;;;5072225;28;20430;-68
2023/12/31 06:25:17;;;;;;;0.40;0.40;;;12.50;68.50;;;;;;5072144;28;20032;-68
2023/12/31 06:27:43;;;;;;;0.52;0.52;;;12.50;68.50;;;;;;5072515;28;20047;-68
2023/12/31 06:30:09;;;;;;;0.40;0.40;;;12.60;68.70;;;;;;5071763;28;20616;-68
2023/12/31 06:32:34;;;;;;;0.40;0.40;;;12.60;68.50;;;;;;5072139;28;20078;-68
2023/12/31 06:35:00;;;;;;;1.17;0.70;;;12.70;68.60;;;;;;5071643;28;20518;-68
2023/12/31 06:37:26;;;;;;;0.50;0.50;;;12.70;68.60;;;;;;5071964;28;20066;-68
2023/12/31 06:39:51;;;;;;;0.40;0.40;;;12.70;68.40;;;;;;5071706;28;20513;-69
2023/12/31 06:42:17;;;;;;;0.40;0.40;;;12.80;68.20;;;;;;5072145;28;20490;-68
2023/12/31 06:44:42;;;;;;;0.88;0.85;;;12.80;68.20;;;;;;5071722;28;20039;-68
2023/12/31 06:47:08;;;;;;;0.40;0.40;;;12.80;67.90;;;;;;5071693;28;20349;-68
2023/12/31 06:49:34;;;;;;;0.40;0.40;;;12.90;68.10;;;;;;5070920;28;20032;-68
2023/12/31 06:52:00;;;;;;;0.40;0.40;;;12.90;67.60;;;;;;5071674;28;20349;-68
2023/12/31 06:54:26;;;;;;;0.43;0.43;;;12.90;67.50;;;;;;5071486;28;20037;-68
2023/12/31 06:56:52;;;;;;;0.63;0.63;;;12.80;67.40;;;;;;5071809;28;20036;-68
2023/12/31 06:59:17;;;;;;;0.50;0.50;;;12.90;67.80;;;;;;5071366;28;20025;-69
2023/12/31 07:01:43;;;;;;;0.50;0.50;;;12.90;67.50;;;;;;5071651;28;20028;-68
2023/12/31 07:04:08;;;;;;;0.50;0.50;;;12.90;67.40;;;;;;5071505;28;20052;-68
2023/12/31 07:06:34;;;;;;;0.50;0.50;;;12.80;67.50;;;;;;5071460;28;20033;-68
2023/12/31 07:08:59;;;;;;;0.50;0.50;;;12.90;67.90;;;;;;5071327;28;20028;-68
2023/12/31 07:11:25;;;;;;;0.40;0.40;;;12.90;67.70;;;;;;5071365;28;20033;-69
2023/12/31 07:13:50;;;;;;;0.32;0.32;;;13.00;67.80;;;;;;5071391;28;20420;-68
2023/12/31 07:16:16;;;;;;;0.52;0.52;;;12.90;67.60;;;;;;5071304;28;20077;-68
2023/12/31 07:18:42;;;;;;;0.85;0.85;;;12.90;67.30;;;;;;5071240;28;20029;-68
2023/12/31 07:21:08;;;;;;;0.40;0.40;;;13.00;67.80;;;;;;5071278;28;20418;-68
2023/12/31 07:23:33;;;;;;;0.55;0.55;;;13.00;67.30;;;;;;5071275;28;20028;-68
2023/12/31 07:25:59;;;;;;;0.47;0.47;;;13.10;67.40;;;;;;5071115;28;20388;-68
2023/12/31 07:28:24;;;;;;;0.50;0.50;;;13.10;67.30;;;;;;5071800;28;20123;-68
2023/12/31 07:30:50;;;;;;;0.40;0.40;;;13.10;67.40;;;;;;5071371;28;20039;-68
2023/12/31 07:33:15;;;;;;;1.02;0.98;;;13.20;67.20;;;;;;5071963;28;20028;-68
2023/12/31 07:35:41;;;;;;;0.63;0.63;;;13.20;66.70;;;;;;5071443;28;20028;-69
2023/12/31 07:38:08;;;;;;;6.65;1.48;;;13.20;66.40;;;;;;5071494;28;20116;-69
2023/12/31 07:40:34;;;;;;;0.40;0.40;;;13.20;66.30;;;;;;5071377;28;20032;-68
2023/12/31 07:42:59;;;;;;;0.50;0.50;;;13.20;66.20;;;;;;5071453;28;20529;-69
2023/12/31 07:45:25;;;;;;;0.38;0.38;;;13.30;66.20;;;;;;5071463;28;20033;-69
2023/12/31 07:47:53;;;;;;;0.75;0.75;;;13.30;65.50;;;;;;5071391;28;20032;-69
2023/12/31 07:50:18;;;;;;;0.50;0.50;;;13.30;66.30;;;;;;5071190;28;20021;-69
2023/12/31 07:52:44;;;;;;;0.40;0.40;;;13.40;66.60;;;;;;5071477;28;20078;-68
2023/12/31 07:55:10;;;;;;;0.40;0.40;;;13.40;66.10;;;;;;5070942;28;20482;-69
2023/12/31 07:57:35;;;;;;;0.45;0.45;;;13.40;65.80;;;;;;5071438;28;20104;-68
2023/12/31 08:00:04;;;;;;;3.40;1.38;;;13.50;66.10;;;;;;5070977;28;20095;-69
2023/12/31 08:02:30;;;;;;;0.68;0.68;;;13.50;65.90;;;;;;5075297;28;20054;-68
2023/12/31 08:04:55;;;;;;;0.40;0.40;;;13.50;65.40;;;;;;5075027;28;20108;-68
2023/12/31 08:07:21;;;;;;;0.75;0.68;;;13.50;65.60;;;;;;5074832;28;20040;-69
2023/12/31 08:09:46;;;;;;;2.60;1.50;;;13.50;65.40;;;;;;5074642;28;20137;-68
2023/12/31 08:12:12;;;;;;;0.40;0.40;;;13.60;65.70;;;;;;5074311;28;20171;-68
2023/12/31 08:14:39;;;;;;;0.40;0.40;;;13.50;65.80;;;;;;5074923;28;20020;-68
2023/12/31 08:17:04;;;;;;;1.65;1.55;;;13.50;65.60;;;;;;5074528;28;20067;-69
2023/12/31 08:19:30;;;;;;;1.17;1.10;;;13.50;65.20;;;;;;5074732;28;20060;-68
2023/12/31 08:21:55;;;;;;;0.40;0.40;;;13.50;65.30;;;;;;5074479;28;20039;-69
2023/12/31 08:24:21;;;;;;;0.55;0.55;;;13.50;64.80;;;;;;5056314;28;20035;-69
2023/12/31 08:26:47;;;;;;;0.60;0.60;;;13.50;64.90;;;;;;5074370;28;20033;-69
2023/12/31 08:29:12;;;;;;;0.65;0.60;;;13.60;65.40;;;;;;5074062;28;20033;-69
2023/12/31 08:31:38;;;;;;;0.40;0.40;;;13.60;65.10;;;;;;5074250;28;20486;-68
2023/12/31 08:34:03;;;;;;;1.02;0.85;;;13.60;65.00;;;;;;5074387;28;20086;-69
2023/12/31 08:36:29;;;;;;;0.50;0.50;;;13.60;64.70;;;;;;5073982;28;20063;-69
2023/12/31 08:38:55;;;;;;;0.40;0.40;;;13.60;65.00;;;;;;5073968;28;20050;-68
2023/12/31 08:41:21;;;;;;;1.33;0.73;;;13.60;64.90;;;;;;5074021;28;20468;-69
2023/12/31 08:43:47;;;;;;;0.70;0.70;;;13.60;64.50;;;;;;5073923;28;20039;-69
2023/12/31 08:46:12;;;;;;;0.60;0.60;;;13.60;64.50;;;;;;5074007;28;20055;-68
2023/12/31 08:48:38;;;;;;;0.50;0.50;;;13.60;64.70;;;;;;5073834;28;20024;-68
2023/12/31 08:51:04;;;;;;;0.95;0.80;;;13.50;64.80;;;;;;5074082;28;20476;-68
2023/12/31 08:53:29;;;;;;;0.40;0.40;;;13.50;63.90;;;;;;5074180;28;20086;-68
2023/12/31 08:55:55;;;;;;;0.50;0.50;;;13.50;64.30;;;;;;5073616;28;20029;-68
2023/12/31 08:58:20;;;;;;;0.50;0.50;;;13.50;64.60;;;;;;5074090;28;20033;-68
2023/12/31 09:00:46;;;;;;;0.40;0.40;;;13.50;64.50;;;;;;5073735;28;20059;-68
2023/12/31 09:03:12;;;;;;;0.60;0.60;;;13.60;64.00;;;;;;5073577;28;20487;-69
2023/12/31 09:05:38;;;;;;;0.40;0.40;;;13.60;63.90;;;;;;5072381;28;20024;-68
2023/12/31 09:08:04;;;;;;;0.50;0.50;;;13.60;63.80;;;;;;5073752;28;20059;-68
2023/12/31 09:10:29;;;;;;;0.50;0.50;;;13.70;63.60;;;;;;5071334;28;20521;-68
2023/12/31 09:12:55;;;;;;;0.52;0.52;;;13.70;63.80;;;;;;5073062;28;20029;-67
2023/12/31 09:15:20;;;;;;;0.75;0.75;;;13.70;64.40;;;;;;5073188;28;20025;-68
2023/12/31 09:17:46;;;;;;;0.52;0.52;;;13.70;63.60;;;;;;5073151;28;20036;-68
2023/12/31 09:20:11;;;;;;;0.60;0.60;;;13.70;63.90;;;;;;5072893;28;20052;-67
2023/12/31 09:22:37;;;;;;;0.38;0.38;;;13.70;63.00;;;;;;5072309;28;20373;-67
2023/12/31 09:25:05;;;;;;;0.77;0.77;;;13.80;63.50;;;;;;5072649;28;20080;-68
2023/12/31 09:27:32;;;;;;;0.40;0.40;;;13.80;63.80;;;;;;5073759;28;20028;-68
2023/12/31 09:29:57;;;;;;;0.40;0.40;;;13.90;63.50;;;;;;5073252;28;20028;-68
2023/12/31 09:32:23;;;;;;;0.40;0.40;;;14.00;62.90;;;;;;5073226;28;20357;-67
2023/12/31 09:34:48;;;;;;;0.52;0.52;;;14.00;63.40;;;;;;5073292;28;20033;-67
2023/12/31 09:37:18;;;;;;;0.60;0.60;;;14.00;63.30;;;;;;5073120;28;20033;-68
2023/12/31 09:39:47;;;;;;;0.40;0.40;;;14.10;63.10;;;;;;5073001;28;20483;-69
2023/12/31 09:42:15;;;;;;;0.40;0.40;;;14.20;62.20;;;;;;5073581;28;20033;-68
2023/12/31 09:44:41;;;;;;;0.40;0.40;;;14.10;62.60;;;;;;5073518;28;20020;-68
2023/12/31 09:47:08;;;;;;;0.60;0.60;;;14.10;62.80;;;;;;5072916;28;20056;-69
2023/12/31 09:49:35;;;;;;;0.50;0.50;;;14.20;62.50;;;;;;5072928;28;20033;-68
2023/12/31 09:52:03;;;;;;;0.40;0.40;;;14.30;62.50;;;;;;5072969;28;20381;-67
2023/12/31 09:54:30;;;;;;;0.45;0.45;;;14.30;62.60;;;;;;5072609;28;20538;-67
2023/12/31 09:56:57;;;;;;;0.60;0.60;;;14.30;62.60;;;;;;5072695;28;20032;-68
2023/12/31 09:59:25;;;;;;;0.50;0.50;;;14.30;62.60;;;;;;5072974;28;20021;-68
2023/12/31 10:01:53;;;;;;;0.40;0.40;;;14.30;62.50;;;;;;5072775;28;20036;-68
2023/12/31 10:04:19;;;;;;;0.40;0.40;;;14.40;62.60;;;;;;5072578;28;20021;-68
2023/12/31 10:06:45;;;;;;;0.60;0.60;;;14.40;61.70;;;;;;5072640;28;20036;-67
2023/12/31 10:09:12;;;;;;;0.45;0.45;;;14.40;61.60;;;;;;5072210;28;20487;-67
2023/12/31 10:11:39;;;;;;;3.83;2.05;;;14.40;62.00;;;;;;5072259;28;20024;-67
2023/12/31 10:14:05;;;;;;;0.65;0.65;;;14.50;61.50;;;;;;5072138;28;20016;-67
2023/12/31 10:16:36;;;;;;;0.70;0.70;;;14.50;61.60;;;;;;5072112;28;20078;-68
2023/12/31 10:19:03;;;;;;;0.47;0.47;;;14.60;61.70;;;;;;5072024;28;20023;-67
2023/12/31 10:21:29;;;;;;;2.47;1.33;;;14.60;61.50;;;;;;5071990;28;20031;-67
2023/12/31 10:23:54;;;;;;;0.63;0.63;;;14.60;61.70;;;;;;5070071;28;20020;-68
2023/12/31 10:26:20;;;;;;;0.95;0.77;;;14.60;62.30;;;;;;5071846;28;20029;-68
2023/12/31 10:28:45;;;;;;;0.50;0.50;;;14.60;61.40;;;;;;5071996;28;20040;-68
2023/12/31 10:31:11;;;;;;;0.40;0.40;;;14.60;61.70;;;;;;5071835;28;20024;-68
2023/12/31 10:33:37;;;;;;;0.68;0.68;;;14.60;61.10;;;;;;5071658;28;20025;-68
2023/12/31 10:36:04;;;;;;;0.45;0.45;;;14.70;61.50;;;;;;5071875;28;20020;-68
2023/12/31 10:38:43;;;;;;;0.50;0.50;;;14.60;60.90;;;;;;5071961;28;20051;-68
2023/12/31 10:41:09;;;;;;;0.50;0.50;;;14.70;61.10;;;;;;5071784;28;20384;-68
2023/12/31 10:43:39;;;;;;;0.50;0.50;;;14.70;60.40;;;;;;5071643;28;20126;-68
2023/12/31 10:46:07;;;;;;;0.50;0.50;;;14.80;61.10;;;;;;5071631;28;20036;-68
2023/12/31 10:48:34;;;;;;;0.50;0.50;;;14.80;60.90;;;;;;5071903;28;20036;-69
2023/12/31 10:51:04;;;;;;;0.68;0.68;;;14.70;60.00;;;;;;5071671;28;20025;-68
2023/12/31 10:53:37;;;;;;;0.85;0.85;;;14.80;60.10;;;;;;5072084;28;20495;-69
2023/12/31 10:56:03;;;;;;;0.50;0.50;;;14.90;59.70;;;;;;5071596;28;20560;-69
2023/12/31 10:58:29;;;;;;;0.68;0.68;;;14.90;59.90;;;;;;5071858;28;20476;-69
2023/12/31 11:00:56;;;;;;;0.47;0.47;;;14.90;60.20;;;;;;5071927;28;20031;-68
2023/12/31 11:03:24;;;;;;;0.40;0.40;;;15.00;59.70;;;;;;5071678;28;20051;-67
2023/12/31 11:05:50;;;;;;;0.63;0.63;;;15.00;59.80;;;;;;5071428;28;20464;-68
2023/12/31 11:08:17;;;;;;;1.02;1.02;;;15.00;59.60;;;;;;5071486;28;20040;-68
2023/12/31 11:10:44;;;;;;;0.40;0.40;;;15.00;59.70;;;;;;5070850;28;20032;-68
2023/12/31 11:13:11;;;;;;;0.50;0.50;;;15.00;59.80;;;;;;5071260;28;20021;-68
2023/12/31 11:15:38;;;;;;;0.50;0.50;;;14.90;59.90;;;;;;5070404;28;20055;-68
2023/12/31 11:18:28;;;;;;;0.63;0.63;;;14.90;61.00;;;;;;5071538;28;20037;-68
2023/12/31 11:21:18;;;;;;;0.50;0.50;;;14.80;61.50;;;;;;5071533;28;20478;-68
2023/12/31 11:23:52;;;;;;;0.63;0.63;;;14.70;62.20;;;;;;5071196;28;20078;-67
2023/12/31 11:26:18;;;;;;;0.50;0.50;;;14.70;62.00;;;;;;5071187;28;20020;-67
2023/12/31 11:28:48;;;;;;;0.30;0.30;;;14.60;61.80;;;;;;5071104;28;20032;-67
2023/12/31 11:31:13;;;;;;;0.80;0.80;;;14.60;60.90;;;;;;5070933;28;20044;-68
2023/12/31 11:33:40;;;;;;;4.63;1.77;;;14.70;61.20;;;;;;5070996;28;20029;-68
2023/12/31 11:36:11;;;;;;;0.60;0.60;;;14.70;61.20;;;;;;5072299;28;20368;-69
2023/12/31 11:39:07;;;;;;;0.55;0.55;;;14.80;61.30;;;;;;5074353;28;20043;-68
2023/12/31 11:41:34;;;;;;;1.10;0.75;;;14.80;61.20;;;;;;5071555;28;20045;-67
2023/12/31 11:44:00;;;;;;;0.40;0.40;;;14.80;60.60;;;;;;5074977;28;20085;-67
2023/12/31 11:46:36;;;;;;;0.50;0.50;;;14.90;60.60;;;;;;5074648;28;20043;-67
2023/12/31 11:49:02;;;;;;;0.50;0.50;;;15.00;60.80;;;;;;5073877;28;20024;-67
2023/12/31 11:51:29;;;;;;;0.47;0.47;;;15.00;60.50;;;;;;5074917;28;20029;-68
2023/12/31 11:53:58;;;;;;;3.25;0.82;;;15.10;60.40;;;;;;5074885;28;20483;-67
2023/12/31 11:56:27;;;;;;;0.60;0.60;;;15.20;60.00;;;;;;5074614;28;20480;-67
2023/12/31 11:58:53;;;;;;;0.30;0.30;;;15.30;60.40;;;;;;5073459;28;20031;-67
2023/12/31 12:01:19;;;;;;;0.50;0.50;;;15.40;59.80;;;;;;5074569;28;20029;-68
2023/12/31 12:03:45;;;;;;;0.47;0.47;;;15.40;59.20;;;;;;5074611;28;20392;-68
2023/12/31 12:06:11;;;;;;;0.40;0.40;;;15.40;59.60;;;;;;5074566;28;20052;-68
2023/12/31 12:08:38;;;;;;;0.50;0.50;;;15.50;59.60;;;;;;5074657;28;20068;-68
2023/12/31 12:11:04;;;;;;;0.45;0.45;;;15.50;59.00;;;;;;5074872;28;20032;-68
2023/12/31 12:13:29;;;;;;;4.40;1.30;;;15.50;59.40;;;;;;5074745;28;20047;-67
2023/12/31 12:15:57;;;;;;;0.47;0.47;;;15.50;59.30;;;;;;5074384;28;20098;-68
2023/12/31 12:18:24;;;;;;;0.40;0.40;;;15.50;59.10;;;;;;5074748;28;20480;-68
2023/12/31 12:20:50;;;;;;;1.33;1.15;;;15.60;59.30;;;;;;5074268;28;20028;-68
2023/12/31 12:23:20;;;;;;;0.50;0.50;;;15.70;58.70;;;;;;5074610;28;20478;-67
2023/12/31 12:25:47;;;;;;;0.73;0.73;;;15.80;58.80;;;;;;5074112;28;20033;-67
2023/12/31 12:28:14;;;;;;;0.73;0.73;;;15.80;58.40;;;;;;5074790;28;20032;-67
2023/12/31 12:30:43;;;;;;;0.50;0.50;;;15.80;58.10;;;;;;5074298;28;20079;-67
2023/12/31 12:33:09;;;;;;;0.40;0.40;;;15.80;58.00;;;;;;5074492;28;20063;-68
2023/12/31 12:35:39;;;;;;;0.70;0.70;;;15.60;57.60;;;;;;5074085;28;20957;-67
2023/12/31 12:38:05;;;;;;;0.50;0.50;;;15.40;57.70;;;;;;5073924;28;20031;-68
2023/12/31 12:40:31;;;;;;;0.50;0.50;;;15.30;58.10;;;;;;5072864;28;20024;-68
2023/12/31 12:42:59;;;;;;;0.40;0.40;;;15.30;58.60;;;;;;5072844;28;20044;-67